Time;durP1;ratioP1;P1;durP2;ratioP2;P2;SDS_P1;SDS_P2;PMS_P1;PMS_P2;Temp;Humidity;BMP_temperature;BMP_pressure;BME280_temperature;BME280_humidity;BME280_pressure;Samples;Min_cycle;Max_cycle;Signal;HPM_P1;HPM_P2
2022/05/21 00:00:22;;;;;;;1.80;1.40;;;;;;;24.37;36.08;97607.50;5016456;28;20022;-33
2022/05/21 00:02:51;;;;;;;2.60;1.40;;;;;;;24.36;36.10;97617.06;5016108;28;20029;-34
2022/05/21 00:05:19;;;;;;;2.15;1.23;;;;;;;24.43;35.92;97610.34;5016269;28;20448;-34
2022/05/21 00:07:44;;;;;;;3.38;1.77;;;;;;;24.38;35.95;97611.03;5016073;28;20022;-33
2022/05/21 00:10:13;;;;;;;4.50;1.52;;;;;;;24.40;36.18;97605.78;5016214;28;20084;-33
2022/05/21 00:12:39;;;;;;;2.60;1.23;;;;;;;24.39;36.17;97601.47;5016080;28;20026;-35
2022/05/21 00:15:06;;;;;;;2.80;1.42;;;;;;;24.40;36.10;97603.00;5016047;28;20029;-33
2022/05/21 00:17:31;;;;;;;3.05;1.27;;;;;;;24.39;36.21;97605.00;5016025;28;20018;-34
2022/05/21 00:19:58;;;;;;;2.13;1.48;;;;;;;24.38;36.04;97603.47;5016174;28;20534;-33
2022/05/21 00:22:23;;;;;;;2.85;1.40;;;;;;;24.43;36.08;97600.00;5015550;28;20050;-33
2022/05/21 00:24:49;;;;;;;2.80;1.40;;;;;;;24.35;36.14;97596.16;5015984;28;20029;-33
2022/05/21 00:27:15;;;;;;;2.30;1.30;;;;;;;24.36;36.08;97599.72;5015879;28;20033;-33
2022/05/21 00:29:40;;;;;;;2.63;1.27;;;;;;;24.36;36.25;97605.97;5015855;28;20114;-34
2022/05/21 00:32:06;;;;;;;1.38;1.20;;;;;;;24.39;36.35;97601.47;5013882;28;20057;-33
2022/05/21 00:34:34;;;;;;;3.00;1.60;;;;;;;24.32;36.52;97597.16;5016039;28;20033;-34
2022/05/21 00:37:01;;;;;;;2.13;1.35;;;;;;;24.31;36.53;97599.16;5015797;28;20882;-34
2022/05/21 00:39:27;;;;;;;3.60;1.23;;;;;;;24.30;36.42;97596.88;5015483;28;20037;-34
2022/05/21 00:41:53;;;;;;;3.33;1.67;;;;;;;24.30;36.24;97596.88;5015609;28;20065;-33
2022/05/21 00:44:20;;;;;;;4.57;1.33;;;;;;;24.33;36.34;97595.91;5015508;28;20041;-33
2022/05/21 00:46:47;;;;;;;4.30;1.38;;;;;;;24.32;36.25;97594.38;5015851;28;20123;-33
2022/05/21 00:49:33;;;;;;;2.38;1.23;;;;;;;24.24;36.58;97593.28;5014065;28;20172;-33
2022/05/21 00:52:05;;;;;;;5.18;1.55;;;;;;;24.36;36.43;97591.38;5015401;28;20030;-33
2022/05/21 00:54:37;;;;;;;2.80;1.17;;;;;;;24.31;36.34;97587.31;5015742;28;20349;-34
2022/05/21 00:57:14;;;;;;;3.75;1.50;;;;;;;24.34;36.64;97581.53;5015304;28;20098;-36
2022/05/21 00:59:48;;;;;;;3.47;1.40;;;;;;;24.27;36.55;97576.44;5015352;28;20030;-33
2022/05/21 01:02:17;;;;;;;2.58;1.52;;;;;;;24.27;36.51;97576.44;5015549;28;20034;-33
2022/05/21 01:04:44;;;;;;;2.28;1.50;;;;;;;24.27;36.61;97570.13;5015294;28;20021;-34
2022/05/21 01:07:10;;;;;;;2.65;1.50;;;;;;;24.20;36.84;97576.09;5015010;28;20033;-33
2022/05/21 01:09:40;;;;;;;3.45;1.30;;;;;;;24.19;36.79;97567.00;5015210;28;20583;-33
2022/05/21 01:12:08;;;;;;;1.80;1.17;;;;;;;24.24;36.77;97566.31;5015111;28;20026;-34
2022/05/21 01:14:35;;;;;;;1.92;1.30;;;;;;;24.24;36.66;97560.78;5015325;28;20440;-34
2022/05/21 01:17:01;;;;;;;2.10;1.20;;;;;;;24.22;36.66;97563.28;5014998;28;20097;-33
2022/05/21 01:19:27;;;;;;;3.10;1.35;;;;;;;24.20;36.61;97563.00;5015107;28;20452;-34
2022/05/21 01:21:53;;;;;;;2.85;1.42;;;;;;;24.20;36.53;97559.47;5014754;28;20049;-35
2022/05/21 01:24:19;;;;;;;3.83;1.20;;;;;;;24.18;36.65;97562.72;5014894;28;20120;-34
2022/05/21 01:26:44;;;;;;;3.47;1.27;;;;;;;24.22;36.66;97563.28;5014627;28;20030;-33
2022/05/21 01:29:21;;;;;;;1.73;1.13;;;;;;;24.20;36.45;97565.00;5014857;28;20025;-33
2022/05/21 01:31:52;;;;;;;1.67;1.30;;;;;;;24.20;36.40;97553.91;5014897;28;20488;-34
2022/05/21 01:34:18;;;;;;;2.88;1.50;;;;;;;24.07;36.59;97556.31;5014563;28;20087;-34
2022/05/21 01:36:44;;;;;;;1.85;1.25;;;;;;;24.12;36.48;97559.13;5014803;28;20524;-35
2022/05/21 01:39:09;;;;;;;2.65;1.17;;;;;;;24.07;36.58;97556.31;5014669;28;20034;-33
2022/05/21 01:41:35;;;;;;;2.30;1.40;;;;;;;24.11;36.64;97554.09;5014446;28;20030;-33
2022/05/21 01:46:44;;;;;;;3.55;1.40;;;;;;;24.13;36.39;97543.25;5014399;28;20064;-33
2022/05/21 01:49:10;;;;;;;2.88;1.35;;;;;;;24.07;36.79;97542.44;5014620;28;20061;-33
2022/05/21 01:51:36;;;;;;;2.05;1.27;;;;;;;24.08;36.51;97555.06;5014491;28;20558;-35
2022/05/21 01:54:02;;;;;;;1.98;1.33;;;;;;;24.08;36.41;97546.75;5014276;28;20017;-33
2022/05/21 01:56:27;;;;;;;1.92;1.35;;;;;;;24.10;36.30;97547.78;5014399;28;20077;-34
2022/05/21 01:58:53;;;;;;;2.88;1.20;;;;;;;24.09;36.11;97548.28;5014360;28;20022;-35
2022/05/21 02:01:18;;;;;;;1.73;1.17;;;;;;;24.06;36.26;97546.47;5014128;28;20026;-33
2022/05/21 02:03:44;;;;;;;2.13;1.20;;;;;;;24.07;36.32;97542.44;5014282;28;20060;-35
2022/05/21 02:06:09;;;;;;;1.77;1.20;;;;;;;24.04;36.34;97535.13;5013999;28;20109;-33
2022/05/21 02:08:35;;;;;;;2.92;1.40;;;;;;;24.04;36.34;97546.19;5014179;28;20084;-34
2022/05/21 02:11:02;;;;;;;2.47;1.33;;;;;;;24.00;36.39;97538.84;5013926;28;20026;-33
2022/05/21 02:13:31;;;;;;;2.53;1.17;;;;;;;23.92;36.18;97542.56;5012708;28;20033;-34
2022/05/21 02:15:57;;;;;;;2.10;1.50;;;;;;;23.97;36.04;97534.31;5013848;28;20034;-36
2022/05/21 02:18:23;;;;;;;2.40;1.73;;;;;;;23.96;36.39;97540.34;5013976;28;20030;-33
2022/05/21 02:20:50;;;;;;;2.58;1.40;;;;;;;23.92;36.16;97543.31;5013864;28;20036;-33
2022/05/21 02:23:17;;;;;;;2.10;1.30;;;;;;;23.90;35.97;97543.03;5013645;28;20116;-34
2022/05/21 02:25:43;;;;;;;4.30;1.30;;;;;;;23.94;36.12;97538.06;5013811;28;20488;-34
2022/05/21 02:28:09;;;;;;;2.55;1.20;;;;;;;23.91;35.95;97527.94;5013746;28;20113;-34
2022/05/21 02:30:34;;;;;;;2.97;1.67;;;;;;;23.90;35.84;97526.41;5013942;28;20045;-35
2022/05/21 02:33:00;;;;;;;2.50;1.40;;;;;;;23.89;35.76;97524.91;5013722;28;20484;-34
2022/05/21 02:35:25;;;;;;;1.98;1.35;;;;;;;23.91;35.78;97527.94;5013548;28;20421;-34
2022/05/21 02:40:36;;;;;;;2.22;1.25;;;;;;;23.87;35.75;97526.63;5013705;28;20099;-35
2022/05/21 02:43:01;;;;;;;2.20;1.42;;;;;;;23.88;35.44;97533.69;5013796;28;20057;-33
2022/05/21 02:45:28;;;;;;;2.90;1.30;;;;;;;23.82;35.23;97525.34;5013168;28;20018;-33
2022/05/21 02:47:54;;;;;;;3.25;1.33;;;;;;;23.79;35.41;97525.56;5013487;28;20033;-34
2022/05/21 02:50:32;;;;;;;3.13;1.40;;;;;;;23.80;35.18;97529.84;5013508;28;20112;-33
2022/05/21 02:53:01;;;;;;;4.00;1.42;;;;;;;23.84;34.96;97528.38;5013536;28;20025;-37
2022/05/21 02:55:26;;;;;;;3.20;1.35;;;;;;;23.83;35.00;97524.09;5019391;28;20033;-33
2022/05/21 03:35:52;;;;;;;2.58;1.00;;;;;;;23.76;34.48;97490.50;5019452;28;20156;-38
2022/05/21 03:48:35;;;;;;;3.22;1.38;;;;;;;23.70;34.33;97492.47;5019154;28;20033;-35
2022/05/21 04:04:27;;;;;;;2.45;1.63;;;;;;;23.60;34.38;97486.34;5019370;28;20549;-34
2022/05/21 04:20:39;;;;;;;1.75;1.10;;;;;;;23.58;33.86;97477.75;5016223;28;20041;-35
2022/05/21 04:50:49;;;;;;;;;;;;;;;23.61;33.46;97477.53;5013620;28;20053;-34
2022/05/21 05:20:08;;;;;;;3.92;1.83;;;;;;;23.59;34.20;97465.44;5015076;28;20037;-35
2022/05/21 05:36:01;;;;;;;3.47;1.35;;;;;;;23.57;34.01;97465.16;5008834;28;20061;-34
2022/05/21 05:51:52;;;;;;;4.63;1.70;;;;;;;23.50;33.96;97465.53;5011730;28;20392;-34
2022/05/21 06:05:04;;;;;;;3.70;1.60;;;;;;;23.50;33.77;97465.53;5011354;28;20068;-34
2022/05/21 06:21:01;;;;;;;4.45;1.58;;;;;;;23.52;33.70;97468.63;5009845;28;20518;-35
2022/05/21 06:23:27;;;;;;;3.55;1.42;;;;;;;23.52;33.87;97463.84;5026702;28;20532;-34
2022/05/21 06:25:52;;;;;;;5.07;1.40;;;;;;;23.55;33.88;97456.56;5010803;28;20028;-36
2022/05/21 06:28:18;;;;;;;2.53;1.20;;;;;;;23.50;33.90;97460.00;5010165;28;20399;-34
2022/05/21 10:57:32;;;;;;;4.97;2.22;;;;;;;23.62;35.05;97340.59;5164422;27;20332;-33
2022/05/21 11:00:01;;;;;;;3.92;1.90;;;;;;;23.55;35.44;97334.75;5152679;27;20110;-33
2022/05/21 11:03:01;;;;;;;4.72;1.40;;;;;;;23.74;34.98;97332.41;5147411;27;20470;-33
2022/05/21 11:05:51;;;;;;;7.50;2.10;;;;;;;23.73;35.00;97339.19;5144302;27;20367;-33
2022/05/21 11:08:27;;;;;;;11.73;2.03;;;;;;;23.71;34.99;97328.59;5150234;27;20469;-33
2022/05/21 11:11:00;;;;;;;5.65;2.30;;;;;;;23.69;35.06;97322.03;5150277;27;20026;-33
2022/05/21 11:13:45;;;;;;;7.07;1.67;;;;;;;23.74;34.93;97329.63;5150025;27;20050;-33
2022/05/21 11:16:17;;;;;;;8.38;2.10;;;;;;;24.19;36.29;97316.81;5150302;27;20055;-34
2022/05/21 11:18:51;;;;;;;5.57;1.88;;;;;;;25.50;32.95;97309.88;5150537;27;20109;-36
2022/05/21 11:21:22;;;;;;;4.55;2.00;;;;;;;25.97;31.91;97314.41;5149692;27;20412;-36
2022/05/21 11:23:57;;;;;;;5.10;1.65;;;;;;;26.20;31.74;97312.34;5149942;27;20114;-36
2022/05/21 11:26:57;;;;;;;7.35;1.70;;;;;;;26.34;31.25;97308.50;5150104;27;20102;-36
2022/05/21 11:29:43;;;;;;;5.55;1.80;;;;;;;26.34;31.30;97304.97;5150265;27;20416;-36
2022/05/21 11:38:18;;;;;;;4.00;1.80;;;;;;;26.41;31.31;97307.22;5149202;27;20042;-36
2022/05/21 11:41:24;;;;;;;3.63;1.80;;;;;;;26.41;31.67;97302.44;5149870;27;20035;-38
2022/05/21 11:43:55;;;;;;;4.68;1.70;;;;;;;26.50;31.48;97297.84;5149731;27;20411;-36
2022/05/21 11:46:37;;;;;;;4.88;2.00;;;;;;;26.38;31.55;97300.66;5149740;27;20027;-36
2022/05/21 11:49:28;;;;;;;2.33;1.63;;;;;;;26.42;31.56;97292.81;5149537;27;20015;-36
2022/05/21 11:52:00;;;;;;;3.45;1.55;;;;;;;26.39;31.73;97293.09;5149851;27;20023;-36
2022/05/21 11:54:45;;;;;;;2.33;1.85;;;;;;;26.29;32.17;97291.84;5149841;27;20099;-36
2022/05/21 11:57:11;;;;;;;8.65;1.70;;;;;;;26.32;31.87;97288.81;5131209;27;20479;-37
2022/05/21 12:00:19;;;;;;;2.97;1.60;;;;;;;26.35;32.42;97278.69;5149612;27;20038;-36
2022/05/21 12:02:53;;;;;;;6.30;1.80;;;;;;;26.30;32.20;97282.25;5124182;27;20046;-37
2022/05/21 12:05:44;;;;;;;4.63;1.60;;;;;;;26.25;32.85;97278.19;5149563;27;20462;-36
2022/05/21 12:08:18;;;;;;;3.28;2.15;;;;;;;26.29;32.52;97277.97;5125399;27;20066;-37
2022/05/21 12:11:07;;;;;;;4.13;1.70;;;;;;;26.17;32.74;97274.44;5135518;27;20031;-37
2022/05/21 12:13:35;;;;;;;3.13;1.63;;;;;;;26.15;32.92;97267.88;5135347;27;20023;-37
2022/05/21 12:16:20;;;;;;;2.70;1.75;;;;;;;26.17;32.88;97270.91;5135274;27;20100;-36
2022/05/21 12:18:54;;;;;;;1.63;1.52;;;;;;;26.23;32.86;97277.94;5135400;27;20378;-36
2022/05/21 12:21:29;;;;;;;2.85;1.65;;;;;;;26.17;33.02;97262.56;5135350;27;20413;-37
2022/05/21 12:23:58;;;;;;;2.67;1.70;;;;;;;26.07;33.67;97262.84;5116675;27;20083;-37
2022/05/21 12:26:27;;;;;;;2.90;1.65;;;;;;;26.12;33.58;97261.28;5134995;27;20019;-37
2022/05/21 12:28:55;;;;;;;2.20;1.52;;;;;;;26.16;33.43;97269.38;5135258;27;20068;-37
2022/05/21 12:31:27;;;;;;;4.05;1.70;;;;;;;26.13;33.46;97266.34;5135251;27;20069;-36
2022/05/21 12:34:24;;;;;;;3.15;1.60;;;;;;;26.13;33.73;97255.22;5135405;27;20026;-36
2022/05/21 12:37:05;;;;;;;3.72;2.22;;;;;;;26.07;33.63;97265.63;5135030;27;20446;-36
2022/05/21 12:39:36;;;;;;;2.72;1.63;;;;;;;26.04;34.02;97258.28;5134903;27;20041;-37
2022/05/21 12:42:19;;;;;;;4.18;1.50;;;;;;;26.00;34.22;97246.69;5134844;27;20030;-36
2022/05/21 12:44:47;;;;;;;2.92;1.45;;;;;;;26.03;34.32;97242.13;5134823;27;20015;-38
2022/05/21 12:47:32;;;;;;;2.55;1.30;;;;;;;25.96;34.41;97246.19;5134743;27;20542;-36
2022/05/21 12:50:01;;;;;;;2.42;1.55;;;;;;;25.99;34.43;97245.16;5134605;27;20385;-38
2022/05/21 12:52:41;;;;;;;3.53;1.70;;;;;;;25.92;34.84;97236.59;5134713;27;20476;-36
2022/05/21 12:55:25;;;;;;;3.03;1.73;;;;;;;25.95;34.46;97238.38;5134289;27;20060;-37
2022/05/21 12:57:57;;;;;;;2.22;1.52;;;;;;;25.91;34.69;97244.19;5134527;27;20045;-37
2022/05/21 13:00:29;;;;;;;2.47;1.53;;;;;;;25.93;34.98;97230.53;5134837;27;20355;-38
2022/05/21 13:02:56;;;;;;;2.10;1.50;;;;;;;25.91;35.17;97233.06;5133007;27;20076;-37
2022/05/21 13:05:30;;;;;;;2.20;1.80;;;;;;;25.91;35.33;97233.06;5134527;27;20102;-37
2022/05/21 13:08:06;;;;;;;3.08;1.67;;;;;;;25.86;34.89;97231.06;5134448;27;20460;-36
2022/05/21 13:10:39;;;;;;;3.05;1.60;;;;;;;25.87;35.05;97229.03;5134485;27;20030;-36
2022/05/21 13:13:08;;;;;;;2.78;1.50;;;;;;;25.86;35.01;97236.59;5134029;27;20042;-37
2022/05/21 13:15:41;;;;;;;3.90;1.90;;;;;;;25.81;35.33;97229.06;5134168;27;20033;-37
2022/05/21 13:18:19;;;;;;;2.88;1.83;;;;;;;25.79;35.29;97214.91;5133679;27;20038;-38
2022/05/21 13:20:53;;;;;;;3.80;1.80;;;;;;;25.80;35.14;97216.44;5134008;27;20084;-37
2022/05/21 13:23:24;;;;;;;2.22;1.70;;;;;;;25.75;35.94;97214.41;5134165;27;20027;-37
2022/05/21 13:25:55;;;;;;;2.03;1.35;;;;;;;25.77;35.38;97212.66;5133541;27;20026;-38
2022/05/21 13:28:24;;;;;;;2.38;1.63;;;;;;;25.75;35.55;97209.63;5133889;27;20023;-36
2022/05/21 13:30:51;;;;;;;2.40;1.38;;;;;;;25.76;35.66;97202.03;5134207;27;20118;-36
2022/05/21 13:33:35;;;;;;;3.17;1.52;;;;;;;25.72;36.05;97198.75;5133329;27;20026;-37
2022/05/21 13:36:10;;;;;;;3.45;1.55;;;;;;;25.70;35.80;97201.31;5133875;27;20050;-37
2022/05/21 13:38:39;;;;;;;4.13;1.73;;;;;;;25.66;35.94;97196.00;5133379;27;20084;-38
2022/05/21 13:41:10;;;;;;;2.33;1.73;;;;;;;25.66;37.08;97193.22;5133618;27;20034;-37
2022/05/21 13:43:46;;;;;;;3.38;1.52;;;;;;;25.65;36.06;97188.19;5133664;27;20056;-36
2022/05/21 13:46:20;;;;;;;2.15;1.45;;;;;;;25.65;36.42;97202.06;5133671;27;20038;-37
2022/05/21 13:48:50;;;;;;;3.08;1.52;;;;;;;25.64;36.29;97197.78;5133475;27;20087;-37
2022/05/21 13:51:18;;;;;;;2.47;1.50;;;;;;;25.59;36.28;97201.31;5133553;27;20428;-36
2022/05/21 13:53:46;;;;;;;3.53;1.60;;;;;;;25.59;36.51;97190.94;5133646;27;20019;-37
2022/05/21 13:56:33;;;;;;;2.33;1.45;;;;;;;25.62;36.29;97186.41;5114661;27;20050;-38
2022/05/21 13:59:25;;;;;;;3.08;1.70;;;;;;;25.54;36.37;97188.94;5133472;27;20020;-36
2022/05/21 14:02:19;;;;;;;3.70;1.95;;;;;;;25.56;36.84;97188.44;5131397;27;20076;-37
2022/05/21 14:04:45;;;;;;;2.13;1.77;;;;;;;25.53;36.55;97176.31;5130112;27;20034;-36
2022/05/21 14:07:28;;;;;;;3.03;1.58;;;;;;;25.54;36.95;97182.63;5114762;27;20019;-37
2022/05/21 14:10:03;;;;;;;5.60;1.65;;;;;;;25.53;36.58;97170.00;5133199;27;20024;-36
2022/05/21 14:12:35;;;;;;;2.75;1.35;;;;;;;25.50;36.50;97177.31;5133253;27;20031;-37
2022/05/21 14:15:10;;;;;;;3.88;1.70;;;;;;;25.48;36.79;97165.97;5132813;27;20027;-36
2022/05/21 14:17:40;;;;;;;3.22;1.90;;;;;;;25.52;37.02;97162.94;5133074;27;20052;-37
2022/05/21 14:20:12;;;;;;;3.40;1.67;;;;;;;25.61;36.64;97157.13;5132868;27;20110;-37
2022/05/21 14:22:40;;;;;;;2.27;1.60;;;;;;;25.49;36.78;97161.16;5132812;27;20034;-37
2022/05/21 14:25:28;;;;;;;3.97;2.03;;;;;;;25.47;36.79;97158.88;5132570;27;20019;-37
2022/05/21 14:28:01;;;;;;;5.70;2.30;;;;;;;25.39;37.58;97150.34;5114481;27;20367;-38
2022/05/21 14:30:39;;;;;;;4.20;1.90;;;;;;;25.44;37.12;97150.84;5132414;27;20042;-36
2022/05/21 14:33:26;;;;;;;3.08;1.80;;;;;;;25.42;37.75;97149.31;5132778;27;20027;-36
2022/05/21 14:35:55;;;;;;;6.63;1.98;;;;;;;25.42;37.67;97143.78;5132860;27;20539;-36
2022/05/21 14:38:23;;;;;;;2.97;1.45;;;;;;;25.44;37.33;97145.28;5132759;27;20095;-36
2022/05/21 14:40:52;;;;;;;4.65;1.73;;;;;;;25.41;37.59;97131.16;5132723;27;20723;-37
2022/05/21 14:43:32;;;;;;;4.32;1.58;;;;;;;25.38;37.64;97132.16;5132525;27;20029;-36
2022/05/21 14:47:51;;;;;;;2.08;1.45;;;;;;;25.35;38.91;97133.16;5132767;27;20474;-36
2022/05/21 14:48:51;;;;;;;1.60;1.50;;;;;;;25.35;37.62;97135.94;5132394;27;20110;-37
2022/05/21 14:54:03;;;;;;;4.10;1.70;;;;;;;25.33;37.94;97124.63;5132506;27;20030;-38
2022/05/21 14:56:31;;;;;;;4.10;1.65;;;;;;;25.36;38.15;97133.94;5132395;27;20040;-36
2022/05/21 14:58:59;;;;;;;3.25;1.40;;;;;;;25.40;37.67;97126.84;5132659;27;20094;-37
2022/05/21 15:01:26;;;;;;;4.13;1.80;;;;;;;25.37;37.74;97122.31;5127777;27;20019;-38
2022/05/21 15:03:56;;;;;;;4.28;1.92;;;;;;;25.19;39.07;97108.25;5119180;28;20401;-36
2022/05/21 15:06:25;;;;;;;2.30;1.63;;;;;;;25.20;39.32;97127.16;5112012;28;20041;-37
2022/05/21 15:08:55;;;;;;;5.82;1.83;;;;;;;25.16;38.91;97115.56;5123171;27;20031;-36
2022/05/21 15:11:26;;;;;;;3.97;1.52;;;;;;;25.28;38.71;97119.81;5133711;27;20019;-36
2022/05/21 15:13:52;;;;;;;3.58;1.80;;;;;;;25.27;38.71;97117.56;5134026;27;20027;-36
2022/05/21 15:16:19;;;;;;;2.47;1.50;;;;;;;25.32;38.64;97109.22;5134311;27;20435;-36
2022/05/21 15:18:44;;;;;;;5.25;1.92;;;;;;;25.24;38.76;97116.53;5134066;27;20471;-38
2022/05/21 15:21:16;;;;;;;3.03;1.90;;;;;;;25.29;38.35;97110.22;5133939;27;20030;-38
2022/05/21 15:23:42;;;;;;;4.20;2.00;;;;;;;25.25;38.90;97095.84;5134386;27;20090;-36
2022/05/21 15:26:08;;;;;;;3.25;1.90;;;;;;;25.24;38.76;97099.88;5119306;28;20023;-38
2022/05/21 15:28:34;;;;;;;2.78;1.60;;;;;;;25.30;39.07;97100.63;5132335;28;20054;-36
2022/05/21 15:30:59;;;;;;;4.13;1.95;;;;;;;25.20;39.51;97106.97;5132300;28;20482;-37
2022/05/21 15:33:25;;;;;;;2.55;1.67;;;;;;;25.17;39.11;97102.44;5132259;28;20035;-38
2022/05/21 15:35:51;;;;;;;5.80;2.13;;;;;;;25.25;38.87;97100.66;5132014;28;20023;-36
2022/05/21 15:38:18;;;;;;;3.33;1.73;;;;;;;25.21;38.83;97092.59;5132156;28;20106;-36
2022/05/21 15:40:44;;;;;;;4.82;1.73;;;;;;;25.26;39.06;97097.34;5132174;28;20034;-37
2022/05/21 15:43:17;;;;;;;2.70;1.75;;;;;;;25.19;39.44;97091.59;5134972;27;20027;-36
2022/05/21 15:45:43;;;;;;;4.20;2.40;;;;;;;25.14;39.73;97089.56;5136159;27;20055;-36
2022/05/21 15:48:09;;;;;;;5.65;1.70;;;;;;;25.16;39.68;97093.34;5135970;27;20402;-37
2022/05/21 15:50:36;;;;;;;3.08;1.77;;;;;;;25.09;39.73;97090.34;5135960;27;20029;-36
2022/05/21 15:53:03;;;;;;;4.93;1.95;;;;;;;25.15;39.76;97080.72;5135847;27;20118;-36
2022/05/21 15:55:28;;;;;;;3.47;1.90;;;;;;;25.13;39.78;97097.13;5128246;27;20044;-37
2022/05/21 15:57:54;;;;;;;4.07;1.98;;;;;;;25.11;39.80;97074.69;5115270;28;20606;-37
2022/05/21 16:00:21;;;;;;;3.45;1.95;;;;;;;25.14;39.81;97079.22;5114973;28;20027;-37
2022/05/21 16:02:46;;;;;;;2.97;2.08;;;;;;;25.17;39.82;97083.00;5115136;28;20426;-36
2022/05/21 16:05:12;;;;;;;4.50;1.77;;;;;;;25.13;39.78;97086.03;5115013;28;20049;-36
2022/05/21 16:07:39;;;;;;;4.05;1.70;;;;;;;25.08;40.10;97078.50;5114991;28;20076;-36
2022/05/21 16:10:07;;;;;;;3.28;2.00;;;;;;;25.08;39.97;97074.97;5115100;28;20028;-38
2022/05/21 16:12:32;;;;;;;4.93;2.22;;;;;;;25.12;40.40;97072.66;5114694;28;20035;-37
2022/05/21 16:14:58;;;;;;;3.58;1.88;;;;;;;25.14;40.45;97067.38;5108522;28;20031;-37
2022/05/21 16:17:24;;;;;;;3.85;1.77;;;;;;;25.14;39.97;97070.13;5100962;28;20375;-36
2022/05/21 16:19:50;;;;;;;3.58;2.15;;;;;;;25.08;40.14;97070.16;5092697;28;20059;-37
2022/05/21 16:22:19;;;;;;;5.53;2.20;;;;;;;24.96;43.19;97066.66;5094358;28;20514;-40
2022/05/21 16:24:45;;;;;;;4.78;1.85;;;;;;;25.07;40.28;97065.88;5094280;28;20032;-36
2022/05/21 16:27:11;;;;;;;3.03;1.88;;;;;;;25.01;40.26;97059.56;5094025;28;20516;-36
2022/05/21 16:29:45;;;;;;;5.10;2.00;;;;;;;25.01;40.50;97063.09;5114046;28;20124;-36
2022/05/21 16:32:14;;;;;;;3.67;1.80;;;;;;;25.02;40.60;97053.50;5114836;28;20039;-37
2022/05/21 16:34:40;;;;;;;2.83;1.85;;;;;;;24.99;40.79;97067.63;5114770;28;20028;-36
2022/05/21 16:37:06;;;;;;;2.90;1.80;;;;;;;25.13;40.42;97054.75;5114422;28;20020;-36
2022/05/21 16:39:34;;;;;;;2.47;1.83;;;;;;;25.04;40.89;97061.34;5114002;28;20114;-36
2022/05/21 16:42:00;;;;;;;3.20;1.90;;;;;;;25.02;40.52;97049.97;5114069;28;20096;-36
2022/05/21 16:44:26;;;;;;;4.22;2.28;;;;;;;24.99;40.73;97048.22;5114530;28;20128;-36
2022/05/21 16:46:52;;;;;;;3.85;1.75;;;;;;;25.02;40.68;97050.75;5114552;28;20020;-36
2022/05/21 16:49:18;;;;;;;3.03;1.63;;;;;;;24.98;41.03;97049.47;5114050;28;20379;-37
2022/05/21 16:51:44;;;;;;;6.43;2.30;;;;;;;24.98;40.77;97049.47;5114249;28;20023;-37
2022/05/21 16:54:10;;;;;;;2.70;1.95;;;;;;;24.93;41.01;97048.25;5114300;28;20111;-36
2022/05/21 16:56:35;;;;;;;3.80;2.10;;;;;;;24.90;41.00;97048.47;5128545;27;20145;-36
2022/05/21 16:59:02;;;;;;;3.55;1.70;;;;;;;24.90;41.12;97046.44;5134668;27;20023;-36
2022/05/21 17:01:27;;;;;;;3.13;1.90;;;;;;;24.98;40.86;97049.47;5134274;27;20046;-36
2022/05/21 17:03:53;;;;;;;3.10;1.95;;;;;;;24.98;41.26;97044.69;5134530;27;20023;-37
2022/05/21 17:06:19;;;;;;;4.28;1.65;;;;;;;25.03;41.01;97052.25;5134605;27;20476;-37
2022/05/21 17:08:48;;;;;;;2.72;1.75;;;;;;;25.02;41.10;97039.63;5134214;27;20050;-37
2022/05/21 17:11:14;;;;;;;4.22;1.80;;;;;;;24.93;41.15;97039.91;5134388;27;20019;-36
2022/05/21 17:13:40;;;;;;;3.58;1.75;;;;;;;24.89;41.34;97036.59;5134161;27;20034;-36
2022/05/21 17:16:06;;;;;;;3.20;2.10;;;;;;;24.87;41.48;97046.69;5134264;27;20723;-36
2022/05/21 17:18:32;;;;;;;6.97;2.92;;;;;;;25.03;41.21;97046.69;5128055;27;20038;-36
2022/05/21 17:21:00;;;;;;;4.47;2.22;;;;;;;24.92;41.80;97046.69;5115591;27;20020;-36
2022/05/21 17:23:26;;;;;;;2.83;1.88;;;;;;;24.95;41.46;97039.41;5113658;28;20027;-37
2022/05/21 17:25:51;;;;;;;4.75;2.00;;;;;;;24.89;41.71;97041.41;5094881;28;20464;-37
2022/05/21 17:31:03;;;;;;;3.58;2.17;;;;;;;24.95;41.87;97056.81;5113433;28;20068;-38
2022/05/21 17:33:29;;;;;;;3.83;1.80;;;;;;;24.87;41.77;97044.69;5113232;28;20479;-36
2022/05/21 17:36:01;;;;;;;2.70;1.98;;;;;;;24.89;41.60;97042.16;5113066;28;20111;-37
2022/05/21 17:38:28;;;;;;;4.55;2.45;;;;;;;24.79;42.16;97049.25;5113065;28;20019;-36
2022/05/21 17:40:55;;;;;;;4.13;2.10;;;;;;;24.78;42.07;97046.97;5113137;28;20032;-36
2022/05/21 17:43:21;;;;;;;4.10;2.20;;;;;;;24.82;42.05;97053.03;5113015;28;20386;-37
2022/05/21 17:45:47;;;;;;;5.70;2.42;;;;;;;24.83;42.12;97051.75;5112922;28;20020;-37
2022/05/21 17:48:19;;;;;;;5.25;2.60;;;;;;;24.79;41.97;97048.47;5112637;28;20024;-36
2022/05/21 17:50:46;;;;;;;6.00;2.33;;;;;;;24.74;42.39;97055.53;5112905;28;20031;-36
2022/05/21 17:53:13;;;;;;;4.40;2.00;;;;;;;24.72;42.51;97049.00;5112601;28;20035;-36
2022/05/21 17:55:39;;;;;;;6.10;2.10;;;;;;;24.66;43.02;97051.78;5112559;28;20043;-37
2022/05/21 17:58:05;;;;;;;4.70;1.80;;;;;;;24.74;42.64;97057.56;5112878;28;20030;-36
2022/05/21 18:00:31;;;;;;;4.22;2.08;;;;;;;24.65;42.92;97064.13;5112319;28;20100;-37
2022/05/21 18:02:58;;;;;;;7.35;2.55;;;;;;;24.76;42.76;97060.59;5112757;28;20051;-36
2022/05/21 18:05:29;;;;;;;3.20;2.15;;;;;;;24.70;42.83;97058.59;5112172;28;20050;-38
2022/05/21 18:07:54;;;;;;;5.60;1.92;;;;;;;24.70;43.21;97060.59;5112394;28;20503;-37
2022/05/21 18:10:20;;;;;;;5.18;2.10;;;;;;;24.74;43.34;97063.09;5112679;28;20031;-37
2022/05/21 18:12:47;;;;;;;4.70;2.13;;;;;;;24.68;43.39;97052.78;5122278;27;20027;-36
2022/05/21 18:20:57;;;;;;;5.05;2.08;;;;;;;24.67;43.61;97042.94;5133386;27;20067;-37
2022/05/21 18:23:23;;;;;;;4.35;2.22;;;;;;;24.78;43.29;97049.75;5133071;27;20023;-37
2022/05/21 18:25:50;;;;;;;3.38;2.05;;;;;;;24.76;43.28;97050.25;5132892;27;20023;-36
2022/05/21 18:28:22;;;;;;;3.83;2.10;;;;;;;24.79;43.52;97049.25;5133129;27;20500;-37
2022/05/21 18:30:48;;;;;;;5.25;2.10;;;;;;;24.77;43.17;97049.00;5133017;27;20049;-36
2022/05/21 18:33:17;;;;;;;4.45;2.58;;;;;;;24.83;43.45;97055.28;5132725;27;20027;-36
2022/05/21 18:35:44;;;;;;;7.63;2.30;;;;;;;24.80;43.70;97052.78;5132685;27;20030;-37
2022/05/21 18:38:09;;;;;;;5.25;2.55;;;;;;;24.77;43.82;97056.56;5132455;27;20031;-37
2022/05/21 18:40:35;;;;;;;7.20;2.50;;;;;;;24.74;43.81;97060.34;5132899;27;20030;-36
2022/05/21 18:43:03;;;;;;;4.55;2.00;;;;;;;24.68;43.98;97050.00;5132685;27;20027;-37
2022/05/21 18:45:29;;;;;;;5.68;2.65;;;;;;;24.61;44.16;97058.81;5132670;27;20026;-37
2022/05/21 18:47:55;;;;;;;5.85;3.40;;;;;;;24.66;44.21;97060.09;5132545;27;20122;-36
2022/05/21 18:50:24;;;;;;;6.22;3.15;;;;;;;24.74;44.77;97063.88;5132660;27;20046;-36
2022/05/21 18:52:52;;;;;;;6.28;2.42;;;;;;;24.77;44.16;97060.09;5132629;27;20019;-36
2022/05/21 18:55:20;;;;;;;6.53;2.80;;;;;;;24.79;43.98;97054.78;5128750;28;20039;-36
2022/05/21 18:57:46;;;;;;;4.80;2.40;;;;;;;24.75;45.19;97064.63;5112129;28;20534;-37
2022/05/21 19:00:13;;;;;;;4.15;2.20;;;;;;;24.72;44.41;97058.09;5111855;28;20039;-36
2022/05/21 19:02:39;;;;;;;7.13;2.35;;;;;;;24.74;44.36;97054.78;5111799;28;20024;-37
2022/05/21 19:05:07;;;;;;;4.30;2.67;;;;;;;24.70;45.06;97055.81;5112043;28;20068;-37
2022/05/21 19:07:36;;;;;;;5.05;2.70;;;;;;;24.86;44.10;97067.38;5112118;28;20529;-36
2022/05/21 19:10:03;;;;;;;6.32;2.97;;;;;;;24.76;44.86;97058.56;5112004;28;20031;-36
2022/05/21 19:12:29;;;;;;;4.90;3.00;;;;;;;24.82;44.50;97064.13;5104005;28;20379;-36
2022/05/21 19:14:57;;;;;;;5.45;3.15;;;;;;;24.76;44.71;97071.69;5091502;28;20115;-36
2022/05/21 19:17:28;;;;;;;5.47;2.80;;;;;;;24.77;45.14;97073.19;5092552;28;20032;-36
2022/05/21 19:19:54;;;;;;;5.40;3.30;;;;;;;24.74;44.70;97074.19;5093836;28;20031;-36
2022/05/21 19:22:21;;;;;;;4.53;2.95;;;;;;;24.84;44.76;97067.16;5095615;28;20042;-36
2022/05/21 19:24:47;;;;;;;3.33;2.75;;;;;;;24.81;45.13;97068.16;5095356;28;20027;-37
2022/05/21 19:27:14;;;;;;;6.88;2.78;;;;;;;24.79;45.25;97062.34;5095529;28;20024;-37
2022/05/21 19:29:42;;;;;;;5.22;3.25;;;;;;;24.82;45.23;97058.56;5095326;28;20376;-36
2022/05/21 19:32:08;;;;;;;5.95;3.20;;;;;;;24.82;45.23;97066.91;5095502;28;20031;-36
2022/05/21 19:34:34;;;;;;;7.95;4.18;;;;;;;24.80;45.02;97061.09;5095604;28;20378;-39
2022/05/21 19:37:00;;;;;;;8.23;4.75;;;;;;;24.72;45.80;97060.88;5095012;28;20020;-36